Terminal Aerodrome Forecast
Issued by NWS

Home | Current Version | Previous Version | Text Only | Print | Product List | Glossary On
Versions: 1 2 3 4 5 6 7 8 9 10 11 12 13 14 15 16 17 18 19
623
FTUS46 KMTR 211210 RRA
TAFSTS
TAF
KSTS 211210Z 2112/2212 17007KT 6SM BR SCT020 BKN025 OVC030
      TEMPO 2112/2116 5SM -SHRA BR BKN020 OVC025
     FM211600 22006KT P6SM -SHRA OVC025
     FM220000 18010KT 3SM -RA BR OVC015
     FM220600 14015G25KT 2SM +RA BR OVC015 WS020/17040KT
     FM220900 15020G30KT 2SM +RA BR OVC012 WS020/17050KT=

USA.gov is the U.S. government's official web portal to all federal, state and local government web resources and services.